sensor_id;sensor_type;location;lat;lon;timestamp;temperature;humidity
16066;DHT22;8137;48.952;8.970;2023-06-22T00:01:58;20.50;99.90
16066;DHT22;8137;48.952;8.970;2023-06-22T00:04:24;20.50;99.90
16066;DHT22;8137;48.952;8.970;2023-06-22T00:06:49;20.50;99.90
16066;DHT22;8137;48.952;8.970;2023-06-22T00:09:15;20.50;99.90
16066;DHT22;8137;48.952;8.970;2023-06-22T00:11:40;20.40;99.90
16066;DHT22;8137;48.952;8.970;2023-06-22T00:14:06;20.40;99.90
16066;DHT22;8137;48.952;8.970;2023-06-22T00:16:32;20.40;99.90
16066;DHT22;8137;48.952;8.970;2023-06-22T00:18:58;20.50;99.90
16066;DHT22;8137;48.952;8.970;2023-06-22T00:21:29;20.50;99.90
16066;DHT22;8137;48.952;8.970;2023-06-22T00:23:55;20.40;99.90
16066;DHT22;8137;48.952;8.970;2023-06-22T00:26:21;20.40;99.90
16066;DHT22;8137;48.952;8.970;2023-06-22T00:28:47;20.40;99.90
16066;DHT22;8137;48.952;8.970;2023-06-22T00:31:13;20.40;99.90
16066;DHT22;8137;48.952;8.970;2023-06-22T00:33:38;20.40;99.90
16066;DHT22;8137;48.952;8.970;2023-06-22T00:36:04;20.40;99.90
16066;DHT22;8137;48.952;8.970;2023-06-22T00:38:30;20.30;99.90
16066;DHT22;8137;48.952;8.970;2023-06-22T00:40:55;20.30;99.90
16066;DHT22;8137;48.952;8.970;2023-06-22T00:43:21;20.30;99.90
16066;DHT22;8137;48.952;8.970;2023-06-22T00:45:47;20.30;99.90
16066;DHT22;8137;48.952;8.970;2023-06-22T00:48:14;20.30;99.90
16066;DHT22;8137;48.952;8.970;2023-06-22T00:50:40;20.40;99.90
16066;DHT22;8137;48.952;8.970;2023-06-22T00:53:07;20.40;99.90
16066;DHT22;8137;48.952;8.970;2023-06-22T00:55:35;20.40;99.90
16066;DHT22;8137;48.952;8.970;2023-06-22T00:58:03;20.40;99.90
16066;DHT22;8137;48.952;8.970;2023-06-22T01:00:31;20.30;99.90
16066;DHT22;8137;48.952;8.970;2023-06-22T01:02:58;20.20;99.90
16066;DHT22;8137;48.952;8.970;2023-06-22T01:05:24;20.20;99.90
16066;DHT22;8137;48.952;8.970;2023-06-22T01:16:03;20.00;99.90
16066;DHT22;8137;48.952;8.970;2023-06-22T01:18:32;20.00;99.90
16066;DHT22;8137;48.952;8.970;2023-06-22T01:21:03;20.00;99.90
16066;DHT22;8137;48.952;8.970;2023-06-22T01:23:50;20.00;99.90
16066;DHT22;8137;48.952;8.970;2023-06-22T01:26:35;20.00;99.90
16066;DHT22;8137;48.952;8.970;2023-06-22T01:29:04;20.00;99.90
16066;DHT22;8137;48.952;8.970;2023-06-22T01:31:31;19.90;99.90
16066;DHT22;8137;48.952;8.970;2023-06-22T01:34:00;19.90;99.90
16066;DHT22;8137;48.952;8.970;2023-06-22T01:36:27;19.90;99.90
16066;DHT22;8137;48.952;8.970;2023-06-22T01:38:53;19.90;99.90
16066;DHT22;8137;48.952;8.970;2023-06-22T01:41:20;19.80;99.90
16066;DHT22;8137;48.952;8.970;2023-06-22T01:43:47;19.80;99.90
16066;DHT22;8137;48.952;8.970;2023-06-22T01:46:14;19.70;99.90
16066;DHT22;8137;48.952;8.970;2023-06-22T01:48:40;19.70;99.90
16066;DHT22;8137;48.952;8.970;2023-06-22T01:51:06;19.70;99.90
16066;DHT22;8137;48.952;8.970;2023-06-22T01:53:31;19.70;99.90
16066;DHT22;8137;48.952;8.970;2023-06-22T01:55:57;19.70;99.90
16066;DHT22;8137;48.952;8.970;2023-06-22T01:58:26;19.70;99.90
16066;DHT22;8137;48.952;8.970;2023-06-22T02:03:35;19.60;99.90
16066;DHT22;8137;48.952;8.970;2023-06-22T02:06:05;19.60;99.90
16066;DHT22;8137;48.952;8.970;2023-06-22T02:08:44;19.60;99.90
16066;DHT22;8137;48.952;8.970;2023-06-22T02:11:14;19.60;99.90
16066;DHT22;8137;48.952;8.970;2023-06-22T02:13:41;19.60;99.90
16066;DHT22;8137;48.952;8.970;2023-06-22T02:16:10;19.60;99.90
16066;DHT22;8137;48.952;8.970;2023-06-22T02:18:36;19.50;99.90
16066;DHT22;8137;48.952;8.970;2023-06-22T02:21:02;19.50;99.90
16066;DHT22;8137;48.952;8.970;2023-06-22T02:23:28;19.40;99.90
16066;DHT22;8137;48.952;8.970;2023-06-22T02:25:54;19.40;99.90
16066;DHT22;8137;48.952;8.970;2023-06-22T02:28:19;19.40;99.90
16066;DHT22;8137;48.952;8.970;2023-06-22T02:30:45;19.40;99.90
16066;DHT22;8137;48.952;8.970;2023-06-22T02:33:10;19.40;99.90
16066;DHT22;8137;48.952;8.970;2023-06-22T02:35:36;19.40;99.90
16066;DHT22;8137;48.952;8.970;2023-06-22T02:38:03;19.30;99.90
16066;DHT22;8137;48.952;8.970;2023-06-22T02:40:29;19.20;99.90
16066;DHT22;8137;48.952;8.970;2023-06-22T02:42:56;19.20;99.90
16066;DHT22;8137;48.952;8.970;2023-06-22T02:45:23;19.20;99.90
16066;DHT22;8137;48.952;8.970;2023-06-22T02:47:49;19.10;99.90
16066;DHT22;8137;48.952;8.970;2023-06-22T02:50:15;19.10;99.90
16066;DHT22;8137;48.952;8.970;2023-06-22T02:52:40;19.00;99.90
16066;DHT22;8137;48.952;8.970;2023-06-22T02:55:06;19.00;99.90
16066;DHT22;8137;48.952;8.970;2023-06-22T02:57:33;19.00;99.90
16066;DHT22;8137;48.952;8.970;2023-06-22T02:59:59;19.00;99.90
16066;DHT22;8137;48.952;8.970;2023-06-22T03:02:25;19.10;99.90
16066;DHT22;8137;48.952;8.970;2023-06-22T03:04:52;19.10;99.90
16066;DHT22;8137;48.952;8.970;2023-06-22T03:07:19;19.10;99.90
16066;DHT22;8137;48.952;8.970;2023-06-22T03:09:45;19.00;99.90
16066;DHT22;8137;48.952;8.970;2023-06-22T03:12:11;19.10;99.90
16066;DHT22;8137;48.952;8.970;2023-06-22T03:14:37;19.00;99.90
16066;DHT22;8137;48.952;8.970;2023-06-22T03:17:04;19.00;99.90
16066;DHT22;8137;48.952;8.970;2023-06-22T03:19:30;19.00;99.90
16066;DHT22;8137;48.952;8.970;2023-06-22T03:21:58;19.00;99.90
16066;DHT22;8137;48.952;8.970;2023-06-22T03:24:24;19.00;99.90
16066;DHT22;8137;48.952;8.970;2023-06-22T03:26:50;19.00;99.90
16066;DHT22;8137;48.952;8.970;2023-06-22T03:29:15;19.00;99.90
16066;DHT22;8137;48.952;8.970;2023-06-22T03:31:41;19.00;99.90
16066;DHT22;8137;48.952;8.970;2023-06-22T03:34:07;19.10;99.90
16066;DHT22;8137;48.952;8.970;2023-06-22T03:36:32;19.10;99.90
16066;DHT22;8137;48.952;8.970;2023-06-22T03:38:58;19.00;99.90
16066;DHT22;8137;48.952;8.970;2023-06-22T03:41:23;19.00;99.90
16066;DHT22;8137;48.952;8.970;2023-06-22T03:43:49;19.00;99.90
16066;DHT22;8137;48.952;8.970;2023-06-22T03:46:14;19.00;99.90
16066;DHT22;8137;48.952;8.970;2023-06-22T03:48:40;19.00;99.90
16066;DHT22;8137;48.952;8.970;2023-06-22T03:51:06;19.10;99.90
16066;DHT22;8137;48.952;8.970;2023-06-22T03:53:31;19.10;99.90
16066;DHT22;8137;48.952;8.970;2023-06-22T03:55:57;19.10;99.90
16066;DHT22;8137;48.952;8.970;2023-06-22T03:58:22;19.10;99.90
16066;DHT22;8137;48.952;8.970;2023-06-22T04:00:49;19.10;99.90
16066;DHT22;8137;48.952;8.970;2023-06-22T04:03:15;19.10;99.90
16066;DHT22;8137;48.952;8.970;2023-06-22T04:05:41;19.20;99.90
16066;DHT22;8137;48.952;8.970;2023-06-22T04:08:07;19.20;99.90
16066;DHT22;8137;48.952;8.970;2023-06-22T04:10:33;19.30;99.90
16066;DHT22;8137;48.952;8.970;2023-06-22T04:12:59;19.40;99.90
16066;DHT22;8137;48.952;8.970;2023-06-22T04:15:24;19.50;99.90
16066;DHT22;8137;48.952;8.970;2023-06-22T04:17:50;19.60;99.90
16066;DHT22;8137;48.952;8.970;2023-06-22T04:20:16;19.80;99.90
16066;DHT22;8137;48.952;8.970;2023-06-22T04:22:41;19.90;99.90
16066;DHT22;8137;48.952;8.970;2023-06-22T04:25:07;20.00;99.90
16066;DHT22;8137;48.952;8.970;2023-06-22T04:27:33;20.10;99.90
16066;DHT22;8137;48.952;8.970;2023-06-22T04:30:03;20.20;99.90
16066;DHT22;8137;48.952;8.970;2023-06-22T04:32:29;20.30;99.90
16066;DHT22;8137;48.952;8.970;2023-06-22T04:34:55;20.40;99.90
16066;DHT22;8137;48.952;8.970;2023-06-22T04:37:20;20.50;99.90
16066;DHT22;8137;48.952;8.970;2023-06-22T04:39:48;20.60;99.90
16066;DHT22;8137;48.952;8.970;2023-06-22T04:42:14;20.70;99.90
16066;DHT22;8137;48.952;8.970;2023-06-22T04:44:40;20.70;99.90
16066;DHT22;8137;48.952;8.970;2023-06-22T04:47:07;20.80;99.90
16066;DHT22;8137;48.952;8.970;2023-06-22T04:49:34;20.90;99.90
16066;DHT22;8137;48.952;8.970;2023-06-22T04:52:04;21.00;99.90
16066;DHT22;8137;48.952;8.970;2023-06-22T04:54:30;21.10;99.90
16066;DHT22;8137;48.952;8.970;2023-06-22T04:57:03;21.20;99.90
16066;DHT22;8137;48.952;8.970;2023-06-22T04:59:30;21.20;99.90
16066;DHT22;8137;48.952;8.970;2023-06-22T05:02:00;21.30;99.90
16066;DHT22;8137;48.952;8.970;2023-06-22T05:04:27;21.30;99.90
16066;DHT22;8137;48.952;8.970;2023-06-22T05:06:54;21.30;99.90
16066;DHT22;8137;48.952;8.970;2023-06-22T05:09:20;21.50;99.90
16066;DHT22;8137;48.952;8.970;2023-06-22T05:11:46;21.50;99.90
16066;DHT22;8137;48.952;8.970;2023-06-22T05:14:12;21.60;99.90
16066;DHT22;8137;48.952;8.970;2023-06-22T05:16:38;21.60;99.90
16066;DHT22;8137;48.952;8.970;2023-06-22T05:19:05;21.70;99.90
16066;DHT22;8137;48.952;8.970;2023-06-22T05:21:31;21.70;99.90
16066;DHT22;8137;48.952;8.970;2023-06-22T05:23:57;21.80;99.90
16066;DHT22;8137;48.952;8.970;2023-06-22T05:26:26;21.80;99.90
16066;DHT22;8137;48.952;8.970;2023-06-22T05:28:52;21.90;99.90
16066;DHT22;8137;48.952;8.970;2023-06-22T05:31:17;21.90;99.90
16066;DHT22;8137;48.952;8.970;2023-06-22T05:33:45;22.00;99.90
16066;DHT22;8137;48.952;8.970;2023-06-22T05:36:12;22.00;99.90
16066;DHT22;8137;48.952;8.970;2023-06-22T05:38:38;22.10;99.90
16066;DHT22;8137;48.952;8.970;2023-06-22T05:41:04;22.10;99.90
16066;DHT22;8137;48.952;8.970;2023-06-22T05:43:30;22.20;99.90
16066;DHT22;8137;48.952;8.970;2023-06-22T05:45:56;22.20;99.90
16066;DHT22;8137;48.952;8.970;2023-06-22T05:48:21;22.20;99.90
16066;DHT22;8137;48.952;8.970;2023-06-22T05:50:47;22.30;99.90
16066;DHT22;8137;48.952;8.970;2023-06-22T05:53:12;22.40;99.90
16066;DHT22;8137;48.952;8.970;2023-06-22T05:55:38;22.50;99.90
16066;DHT22;8137;48.952;8.970;2023-06-22T05:58:04;22.60;99.90
16066;DHT22;8137;48.952;8.970;2023-06-22T06:00:30;22.60;99.90
16066;DHT22;8137;48.952;8.970;2023-06-22T06:02:55;22.80;99.90
16066;DHT22;8137;48.952;8.970;2023-06-22T06:05:21;22.80;99.90
16066;DHT22;8137;48.952;8.970;2023-06-22T06:07:48;22.80;99.90
16066;DHT22;8137;48.952;8.970;2023-06-22T06:10:14;22.90;99.90
16066;DHT22;8137;48.952;8.970;2023-06-22T06:12:39;23.10;99.90
16066;DHT22;8137;48.952;8.970;2023-06-22T06:15:05;23.10;99.90
16066;DHT22;8137;48.952;8.970;2023-06-22T06:17:31;23.20;99.90
16066;DHT22;8137;48.952;8.970;2023-06-22T06:19:58;23.30;99.90
16066;DHT22;8137;48.952;8.970;2023-06-22T06:22:24;23.40;99.90
16066;DHT22;8137;48.952;8.970;2023-06-22T06:24:49;23.50;99.90
16066;DHT22;8137;48.952;8.970;2023-06-22T06:27:15;23.60;99.90
16066;DHT22;8137;48.952;8.970;2023-06-22T06:29:43;23.60;99.90
16066;DHT22;8137;48.952;8.970;2023-06-22T06:32:11;23.80;99.90
16066;DHT22;8137;48.952;8.970;2023-06-22T06:34:37;23.90;99.90
16066;DHT22;8137;48.952;8.970;2023-06-22T06:37:03;24.10;99.90
16066;DHT22;8137;48.952;8.970;2023-06-22T06:39:29;24.20;99.90
16066;DHT22;8137;48.952;8.970;2023-06-22T06:41:55;24.30;99.90
16066;DHT22;8137;48.952;8.970;2023-06-22T06:44:20;24.40;99.90
16066;DHT22;8137;48.952;8.970;2023-06-22T06:46:46;24.40;99.90
16066;DHT22;8137;48.952;8.970;2023-06-22T06:49:12;24.50;99.90
16066;DHT22;8137;48.952;8.970;2023-06-22T06:51:38;24.70;99.90
16066;DHT22;8137;48.952;8.970;2023-06-22T06:54:04;24.60;99.90
16066;DHT22;8137;48.952;8.970;2023-06-22T06:56:29;24.70;99.90
16066;DHT22;8137;48.952;8.970;2023-06-22T06:58:55;24.70;99.90
16066;DHT22;8137;48.952;8.970;2023-06-22T07:01:21;24.90;99.90
16066;DHT22;8137;48.952;8.970;2023-06-22T07:03:47;25.00;99.90
16066;DHT22;8137;48.952;8.970;2023-06-22T07:06:13;25.00;99.90
16066;DHT22;8137;48.952;8.970;2023-06-22T07:08:39;25.00;99.90
16066;DHT22;8137;48.952;8.970;2023-06-22T07:11:05;25.10;99.90
16066;DHT22;8137;48.952;8.970;2023-06-22T07:13:31;25.20;99.90
16066;DHT22;8137;48.952;8.970;2023-06-22T07:15:56;25.20;99.90
16066;DHT22;8137;48.952;8.970;2023-06-22T07:18:23;25.20;99.90
16066;DHT22;8137;48.952;8.970;2023-06-22T07:20:48;25.50;99.90
16066;DHT22;8137;48.952;8.970;2023-06-22T07:23:14;25.50;99.90
16066;DHT22;8137;48.952;8.970;2023-06-22T07:25:39;25.50;99.90
16066;DHT22;8137;48.952;8.970;2023-06-22T07:28:06;25.60;99.90
16066;DHT22;8137;48.952;8.970;2023-06-22T07:30:33;25.80;99.90
16066;DHT22;8137;48.952;8.970;2023-06-22T07:32:59;26.10;99.90
16066;DHT22;8137;48.952;8.970;2023-06-22T07:35:30;26.40;99.90
16066;DHT22;8137;48.952;8.970;2023-06-22T07:37:55;26.40;99.90
16066;DHT22;8137;48.952;8.970;2023-06-22T07:40:21;26.40;99.90
16066;DHT22;8137;48.952;8.970;2023-06-22T07:42:47;26.60;99.90
16066;DHT22;8137;48.952;8.970;2023-06-22T07:45:13;26.60;99.90
16066;DHT22;8137;48.952;8.970;2023-06-22T07:47:39;26.70;99.90
16066;DHT22;8137;48.952;8.970;2023-06-22T07:50:05;26.80;99.90
16066;DHT22;8137;48.952;8.970;2023-06-22T07:52:32;27.00;99.90
16066;DHT22;8137;48.952;8.970;2023-06-22T07:54:57;27.00;99.90
16066;DHT22;8137;48.952;8.970;2023-06-22T07:57:23;27.30;99.90
16066;DHT22;8137;48.952;8.970;2023-06-22T07:59:57;27.30;99.90
16066;DHT22;8137;48.952;8.970;2023-06-22T08:02:23;27.50;99.90
16066;DHT22;8137;48.952;8.970;2023-06-22T08:04:49;27.70;99.90
16066;DHT22;8137;48.952;8.970;2023-06-22T08:07:15;27.80;99.90
16066;DHT22;8137;48.952;8.970;2023-06-22T08:09:46;27.70;99.90
16066;DHT22;8137;48.952;8.970;2023-06-22T08:12:12;27.70;99.90
16066;DHT22;8137;48.952;8.970;2023-06-22T08:14:38;27.80;99.90
16066;DHT22;8137;48.952;8.970;2023-06-22T08:17:04;28.10;99.90
16066;DHT22;8137;48.952;8.970;2023-06-22T08:19:30;28.10;99.90
16066;DHT22;8137;48.952;8.970;2023-06-22T08:21:56;28.30;99.90
16066;DHT22;8137;48.952;8.970;2023-06-22T08:24:21;28.00;99.90
16066;DHT22;8137;48.952;8.970;2023-06-22T08:26:47;28.00;99.90
16066;DHT22;8137;48.952;8.970;2023-06-22T08:29:13;28.20;99.90
16066;DHT22;8137;48.952;8.970;2023-06-22T08:31:38;28.20;99.90
16066;DHT22;8137;48.952;8.970;2023-06-22T08:34:04;28.30;99.90
16066;DHT22;8137;48.952;8.970;2023-06-22T08:36:29;28.30;99.90
16066;DHT22;8137;48.952;8.970;2023-06-22T08:38:58;28.50;99.90
16066;DHT22;8137;48.952;8.970;2023-06-22T08:41:29;28.50;99.90
16066;DHT22;8137;48.952;8.970;2023-06-22T08:43:54;28.80;99.90
16066;DHT22;8137;48.952;8.970;2023-06-22T08:46:21;28.90;99.90
16066;DHT22;8137;48.952;8.970;2023-06-22T08:48:49;28.80;99.90
16066;DHT22;8137;48.952;8.970;2023-06-22T08:51:15;28.80;99.90
16066;DHT22;8137;48.952;8.970;2023-06-22T08:53:41;28.90;99.90
16066;DHT22;8137;48.952;8.970;2023-06-22T08:56:07;29.10;99.90
16066;DHT22;8137;48.952;8.970;2023-06-22T08:58:32;29.20;99.90
16066;DHT22;8137;48.952;8.970;2023-06-22T09:00:58;28.90;99.90
16066;DHT22;8137;48.952;8.970;2023-06-22T09:03:26;28.80;99.90
16066;DHT22;8137;48.952;8.970;2023-06-22T09:05:52;29.00;99.90
16066;DHT22;8137;48.952;8.970;2023-06-22T09:08:17;28.90;99.90
16066;DHT22;8137;48.952;8.970;2023-06-22T09:10:43;28.90;99.90
16066;DHT22;8137;48.952;8.970;2023-06-22T09:13:09;29.10;99.90
16066;DHT22;8137;48.952;8.970;2023-06-22T09:15:34;28.90;99.90
16066;DHT22;8137;48.952;8.970;2023-06-22T09:18:00;29.00;99.90
16066;DHT22;8137;48.952;8.970;2023-06-22T09:20:26;29.10;99.90
16066;DHT22;8137;48.952;8.970;2023-06-22T09:22:51;29.10;99.90
16066;DHT22;8137;48.952;8.970;2023-06-22T09:25:17;29.10;99.90
16066;DHT22;8137;48.952;8.970;2023-06-22T09:27:46;28.90;99.90
16066;DHT22;8137;48.952;8.970;2023-06-22T09:30:12;28.80;99.90
16066;DHT22;8137;48.952;8.970;2023-06-22T09:32:37;28.70;99.90
16066;DHT22;8137;48.952;8.970;2023-06-22T09:35:05;28.60;99.90
16066;DHT22;8137;48.952;8.970;2023-06-22T09:37:34;28.30;99.90
16066;DHT22;8137;48.952;8.970;2023-06-22T09:40:01;28.20;99.90
16066;DHT22;8137;48.952;8.970;2023-06-22T09:42:26;28.30;99.90
16066;DHT22;8137;48.952;8.970;2023-06-22T09:44:52;28.40;99.90
16066;DHT22;8137;48.952;8.970;2023-06-22T09:47:17;29.00;99.90
16066;DHT22;8137;48.952;8.970;2023-06-22T09:49:43;29.50;99.90
16066;DHT22;8137;48.952;8.970;2023-06-22T09:52:08;29.60;99.90
16066;DHT22;8137;48.952;8.970;2023-06-22T09:54:34;30.10;99.90
16066;DHT22;8137;48.952;8.970;2023-06-22T09:57:00;30.20;99.90
16066;DHT22;8137;48.952;8.970;2023-06-22T09:59:25;30.30;99.90
16066;DHT22;8137;48.952;8.970;2023-06-22T10:01:51;30.40;99.90
16066;DHT22;8137;48.952;8.970;2023-06-22T10:04:16;30.60;99.90
16066;DHT22;8137;48.952;8.970;2023-06-22T10:06:42;30.80;99.90
16066;DHT22;8137;48.952;8.970;2023-06-22T10:09:08;31.10;99.90
16066;DHT22;8137;48.952;8.970;2023-06-22T10:11:34;31.50;99.90
16066;DHT22;8137;48.952;8.970;2023-06-22T10:14:01;31.30;99.90
16066;DHT22;8137;48.952;8.970;2023-06-22T10:16:33;31.30;99.90
16066;DHT22;8137;48.952;8.970;2023-06-22T10:19:01;31.20;99.90
16066;DHT22;8137;48.952;8.970;2023-06-22T10:21:26;31.00;99.90
16066;DHT22;8137;48.952;8.970;2023-06-22T10:23:54;30.90;99.90
16066;DHT22;8137;48.952;8.970;2023-06-22T10:26:19;31.20;99.90
16066;DHT22;8137;48.952;8.970;2023-06-22T10:28:45;31.60;99.90
16066;DHT22;8137;48.952;8.970;2023-06-22T10:31:10;32.00;99.90
16066;DHT22;8137;48.952;8.970;2023-06-22T10:33:36;31.80;99.90
16066;DHT22;8137;48.952;8.970;2023-06-22T10:36:01;31.70;99.90
16066;DHT22;8137;48.952;8.970;2023-06-22T10:38:27;31.60;99.90
16066;DHT22;8137;48.952;8.970;2023-06-22T10:40:53;31.60;99.90
16066;DHT22;8137;48.952;8.970;2023-06-22T10:43:18;31.60;99.90
16066;DHT22;8137;48.952;8.970;2023-06-22T10:45:45;31.70;99.90
16066;DHT22;8137;48.952;8.970;2023-06-22T10:48:11;31.70;99.90
16066;DHT22;8137;48.952;8.970;2023-06-22T10:50:36;31.70;99.90
16066;DHT22;8137;48.952;8.970;2023-06-22T10:53:02;31.60;99.90
16066;DHT22;8137;48.952;8.970;2023-06-22T10:55:27;31.80;99.90
16066;DHT22;8137;48.952;8.970;2023-06-22T10:57:53;31.70;99.90
16066;DHT22;8137;48.952;8.970;2023-06-22T11:00:19;31.50;99.90
16066;DHT22;8137;48.952;8.970;2023-06-22T11:02:44;31.20;99.90
16066;DHT22;8137;48.952;8.970;2023-06-22T11:05:10;31.10;99.90
16066;DHT22;8137;48.952;8.970;2023-06-22T11:07:36;31.00;99.90
16066;DHT22;8137;48.952;8.970;2023-06-22T11:10:02;31.20;99.90
16066;DHT22;8137;48.952;8.970;2023-06-22T11:12:28;31.30;99.90
16066;DHT22;8137;48.952;8.970;2023-06-22T11:14:53;31.50;99.90
16066;DHT22;8137;48.952;8.970;2023-06-22T11:17:19;31.60;99.90
16066;DHT22;8137;48.952;8.970;2023-06-22T11:19:45;31.80;99.90
16066;DHT22;8137;48.952;8.970;2023-06-22T11:22:10;32.10;99.90
16066;DHT22;8137;48.952;8.970;2023-06-22T11:24:36;32.00;99.90
16066;DHT22;8137;48.952;8.970;2023-06-22T11:27:02;32.20;99.90
16066;DHT22;8137;48.952;8.970;2023-06-22T11:29:27;32.30;99.90
16066;DHT22;8137;48.952;8.970;2023-06-22T11:31:53;32.30;99.90
16066;DHT22;8137;48.952;8.970;2023-06-22T11:34:18;32.40;99.90
16066;DHT22;8137;48.952;8.970;2023-06-22T11:36:44;32.40;99.90
16066;DHT22;8137;48.952;8.970;2023-06-22T11:39:10;32.40;99.90
16066;DHT22;8137;48.952;8.970;2023-06-22T11:41:36;32.40;99.90
16066;DHT22;8137;48.952;8.970;2023-06-22T11:44:02;32.40;99.90
16066;DHT22;8137;48.952;8.970;2023-06-22T11:46:29;32.20;99.90
16066;DHT22;8137;48.952;8.970;2023-06-22T11:48:55;31.70;99.90
16066;DHT22;8137;48.952;8.970;2023-06-22T11:51:21;31.50;99.90
16066;DHT22;8137;48.952;8.970;2023-06-22T11:53:46;31.30;99.90
16066;DHT22;8137;48.952;8.970;2023-06-22T11:56:12;31.20;99.90
16066;DHT22;8137;48.952;8.970;2023-06-22T11:58:37;31.10;99.90
16066;DHT22;8137;48.952;8.970;2023-06-22T12:01:03;30.90;99.90
16066;DHT22;8137;48.952;8.970;2023-06-22T12:03:29;30.60;99.90
16066;DHT22;8137;48.952;8.970;2023-06-22T12:05:55;30.40;99.90
16066;DHT22;8137;48.952;8.970;2023-06-22T12:08:21;30.10;99.90
16066;DHT22;8137;48.952;8.970;2023-06-22T12:10:48;29.90;99.90
16066;DHT22;8137;48.952;8.970;2023-06-22T12:13:15;29.80;99.90
16066;DHT22;8137;48.952;8.970;2023-06-22T12:15:41;29.80;99.90
16066;DHT22;8137;48.952;8.970;2023-06-22T12:18:06;29.70;99.90
16066;DHT22;8137;48.952;8.970;2023-06-22T12:20:32;29.60;99.90
16066;DHT22;8137;48.952;8.970;2023-06-22T12:22:58;29.70;99.90
16066;DHT22;8137;48.952;8.970;2023-06-22T12:25:24;29.80;99.90
16066;DHT22;8137;48.952;8.970;2023-06-22T12:27:50;29.80;99.90
16066;DHT22;8137;48.952;8.970;2023-06-22T12:30:16;29.90;99.90
16066;DHT22;8137;48.952;8.970;2023-06-22T12:32:42;30.10;99.90
16066;DHT22;8137;48.952;8.970;2023-06-22T12:35:08;30.30;99.90
16066;DHT22;8137;48.952;8.970;2023-06-22T12:37:41;30.60;99.90
16066;DHT22;8137;48.952;8.970;2023-06-22T12:40:08;30.80;99.90
16066;DHT22;8137;48.952;8.970;2023-06-22T12:42:34;31.00;99.90
16066;DHT22;8137;48.952;8.970;2023-06-22T12:45:00;31.30;99.90
16066;DHT22;8137;48.952;8.970;2023-06-22T12:47:26;31.30;99.90
16066;DHT22;8137;48.952;8.970;2023-06-22T12:49:51;31.50;99.90
16066;DHT22;8137;48.952;8.970;2023-06-22T12:52:17;31.60;99.90
16066;DHT22;8137;48.952;8.970;2023-06-22T12:54:42;31.70;99.90
16066;DHT22;8137;48.952;8.970;2023-06-22T12:57:08;32.00;99.90
16066;DHT22;8137;48.952;8.970;2023-06-22T12:59:34;32.40;99.90
16066;DHT22;8137;48.952;8.970;2023-06-22T13:01:59;32.80;99.90
16066;DHT22;8137;48.952;8.970;2023-06-22T13:04:25;33.40;99.90
16066;DHT22;8137;48.952;8.970;2023-06-22T13:06:50;33.50;99.90
16066;DHT22;8137;48.952;8.970;2023-06-22T13:09:18;33.00;98.50
16066;DHT22;8137;48.952;8.970;2023-06-22T13:11:44;33.10;99.90
16066;DHT22;8137;48.952;8.970;2023-06-22T13:14:10;33.10;99.90
16066;DHT22;8137;48.952;8.970;2023-06-22T13:16:35;33.20;99.90
16066;DHT22;8137;48.952;8.970;2023-06-22T13:19:01;33.30;99.90
16066;DHT22;8137;48.952;8.970;2023-06-22T13:21:27;33.30;99.50
16066;DHT22;8137;48.952;8.970;2023-06-22T13:23:52;33.20;98.60
16066;DHT22;8137;48.952;8.970;2023-06-22T13:26:18;33.10;98.80
16066;DHT22;8137;48.952;8.970;2023-06-22T13:28:43;32.80;99.50
16066;DHT22;8137;48.952;8.970;2023-06-22T13:31:09;32.90;99.90
16066;DHT22;8137;48.952;8.970;2023-06-22T13:33:35;33.10;99.90
16066;DHT22;8137;48.952;8.970;2023-06-22T13:36:00;33.30;99.90
16066;DHT22;8137;48.952;8.970;2023-06-22T13:38:28;33.30;99.90
16066;DHT22;8137;48.952;8.970;2023-06-22T13:40:54;33.50;99.90
16066;DHT22;8137;48.952;8.970;2023-06-22T13:43:22;33.60;99.90
16066;DHT22;8137;48.952;8.970;2023-06-22T13:45:48;34.00;99.90
16066;DHT22;8137;48.952;8.970;2023-06-22T13:48:14;34.30;99.90
16066;DHT22;8137;48.952;8.970;2023-06-22T13:50:40;34.30;98.30
16066;DHT22;8137;48.952;8.970;2023-06-22T13:53:05;34.40;93.10
16066;DHT22;8137;48.952;8.970;2023-06-22T13:55:31;34.30;89.80
16066;DHT22;8137;48.952;8.970;2023-06-22T13:57:56;34.30;86.30
16066;DHT22;8137;48.952;8.970;2023-06-22T14:00:22;34.30;92.40
16066;DHT22;8137;48.952;8.970;2023-06-22T14:02:48;34.40;92.90
16066;DHT22;8137;48.952;8.970;2023-06-22T14:05:14;34.40;93.30
16066;DHT22;8137;48.952;8.970;2023-06-22T14:07:39;34.30;91.60
16066;DHT22;8137;48.952;8.970;2023-06-22T14:10:08;34.10;91.40
16066;DHT22;8137;48.952;8.970;2023-06-22T14:12:34;34.10;93.40
16066;DHT22;8137;48.952;8.970;2023-06-22T14:14:59;34.00;94.10
16066;DHT22;8137;48.952;8.970;2023-06-22T14:17:25;33.90;93.70
16066;DHT22;8137;48.952;8.970;2023-06-22T14:19:52;33.70;93.60
16066;DHT22;8137;48.952;8.970;2023-06-22T14:22:19;33.60;95.10
16066;DHT22;8137;48.952;8.970;2023-06-22T14:24:45;33.50;96.00
16066;DHT22;8137;48.952;8.970;2023-06-22T14:27:10;33.40;99.00
16066;DHT22;8137;48.952;8.970;2023-06-22T14:29:36;33.40;98.30
16066;DHT22;8137;48.952;8.970;2023-06-22T14:32:02;33.50;98.10
16066;DHT22;8137;48.952;8.970;2023-06-22T14:34:27;33.60;98.00
16066;DHT22;8137;48.952;8.970;2023-06-22T14:36:53;33.60;97.70
16066;DHT22;8137;48.952;8.970;2023-06-22T14:39:18;33.60;96.00
16066;DHT22;8137;48.952;8.970;2023-06-22T14:41:45;33.70;95.30
16066;DHT22;8137;48.952;8.970;2023-06-22T14:44:11;33.50;90.60
16066;DHT22;8137;48.952;8.970;2023-06-22T14:46:36;33.60;94.40
16066;DHT22;8137;48.952;8.970;2023-06-22T14:49:02;33.60;89.10
16066;DHT22;8137;48.952;8.970;2023-06-22T14:51:28;33.80;90.60
16066;DHT22;8137;48.952;8.970;2023-06-22T14:53:53;34.10;93.30
16066;DHT22;8137;48.952;8.970;2023-06-22T14:56:19;34.60;87.30
16066;DHT22;8137;48.952;8.970;2023-06-22T14:58:44;34.90;66.60
16066;DHT22;8137;48.952;8.970;2023-06-22T15:01:11;34.90;62.20
16066;DHT22;8137;48.952;8.970;2023-06-22T15:03:37;34.80;58.10
16066;DHT22;8137;48.952;8.970;2023-06-22T15:06:03;34.60;63.10
16066;DHT22;8137;48.952;8.970;2023-06-22T15:08:29;34.30;61.70
16066;DHT22;8137;48.952;8.970;2023-06-22T15:10:57;34.20;66.90
16066;DHT22;8137;48.952;8.970;2023-06-22T15:13:23;34.10;71.50
16066;DHT22;8137;48.952;8.970;2023-06-22T15:15:50;34.10;57.30
16066;DHT22;8137;48.952;8.970;2023-06-22T15:18:15;33.80;58.70
16066;DHT22;8137;48.952;8.970;2023-06-22T15:20:41;33.50;71.60
16066;DHT22;8137;48.952;8.970;2023-06-22T15:23:10;33.10;80.10
16066;DHT22;8137;48.952;8.970;2023-06-22T15:25:35;32.80;83.10
16066;DHT22;8137;48.952;8.970;2023-06-22T15:28:01;32.40;86.50
16066;DHT22;8137;48.952;8.970;2023-06-22T15:30:28;32.10;90.30
16066;DHT22;8137;48.952;8.970;2023-06-22T15:32:53;31.90;92.20
16066;DHT22;8137;48.952;8.970;2023-06-22T15:35:19;31.90;94.10
16066;DHT22;8137;48.952;8.970;2023-06-22T15:37:45;31.80;95.80
16066;DHT22;8137;48.952;8.970;2023-06-22T15:40:11;31.90;98.10
16066;DHT22;8137;48.952;8.970;2023-06-22T15:42:37;31.90;99.00
16066;DHT22;8137;48.952;8.970;2023-06-22T15:45:03;31.90;99.70
16066;DHT22;8137;48.952;8.970;2023-06-22T15:47:29;32.00;99.90
16066;DHT22;8137;48.952;8.970;2023-06-22T15:49:55;31.90;99.90